LVCWG SADL-SADF
Flight info
| Callsign | LVCWG |
|---|---|
| Flight time | 0h 20m |
| Altitude | 3000 |
| Route | ILM DCT PAL DCT TRINI |
| Aircraft | PA31/L-SDFGRY/S |
Departure
| Time | 2026-04-14 21:40 |
|---|---|
| Airport | La Plata Airport (SADL) |
Arrival
| Time | 2026-04-14 22:00 |
|---|---|
| Airport | San Fernando Airport (SADF) |
| Time | Latitude | Longitude | Altitude | Speed | Heading |
|---|---|---|---|---|---|
| 2026-04-14 21:33 | -34.96393 | -57.88600 | 75 ft | 0 kts | 228° |
| 2026-04-14 21:36 | -34.96396 | -57.88605 | 75 ft | 3 kts | 242° |
| 2026-04-14 21:36 | -34.96334 | -57.88706 | 75 ft | 15 kts | 315° |
| 2026-04-14 21:36 | -34.96301 | -57.88745 | 75 ft | 0 kts | 316° |
| 2026-04-14 21:37 | -34.96238 | -57.88843 | 75 ft | 21 kts | 298° |
| 2026-04-14 21:37 | -34.96193 | -57.88982 | 75 ft | 19 kts | 283° |
| 2026-04-14 21:37 | -34.96289 | -57.89109 | 75 ft | 50 kts | 193° |
| 2026-04-14 21:37 | -34.96785 | -57.89263 | 75 ft | 70 kts | 194° |
| 2026-04-14 21:38 | -34.97221 | -57.89397 | 75 ft | 58 kts | 193° |
| 2026-04-14 21:38 | -34.97535 | -57.89506 | 75 ft | 26 kts | 207° |
| 2026-04-14 21:38 | -34.97536 | -57.89492 | 75 ft | 3 kts | 14° |
| 2026-04-14 21:38 | -34.97535 | -57.89492 | 75 ft | 0 kts | 11° |
| 2026-04-14 21:39 | -34.97300 | -57.89421 | 75 ft | 79 kts | 14° |
| 2026-04-14 21:39 | -34.96606 | -57.89216 | 267 ft | 116 kts | 15° |
| 2026-04-14 21:39 | -34.95760 | -57.89022 | 564 ft | 138 kts | 11° |
| 2026-04-14 21:40 | -34.94743 | -57.88844 | 808 ft | 155 kts | 11° |
| 2026-04-14 21:40 | -34.93647 | -57.88636 | 1096 ft | 164 kts | 11° |
| 2026-04-14 21:40 | -34.92513 | -57.88417 | 1398 ft | 164 kts | 12° |
| 2026-04-14 21:40 | -34.91396 | -57.88199 | 1688 ft | 162 kts | 12° |
| 2026-04-14 21:41 | -34.90287 | -57.87989 | 1971 ft | 161 kts | 11° |
| 2026-04-14 21:41 | -34.89181 | -57.87780 | 2249 ft | 161 kts | 12° |
| 2026-04-14 21:41 | -34.88074 | -57.87793 | 2507 ft | 165 kts | 340° |
| 2026-04-14 21:41 | -34.87262 | -57.88753 | 2763 ft | 166 kts | 292° |
| 2026-04-14 21:42 | -34.87018 | -57.90131 | 2989 ft | 169 kts | 287° |
| 2026-04-14 21:42 | -34.86575 | -57.91531 | 2940 ft | 184 kts | 285° |
| 2026-04-14 21:42 | -34.86269 | -57.93071 | 2935 ft | 190 kts | 282° |
| 2026-04-14 21:42 | -34.86101 | -57.94683 | 2933 ft | 193 kts | 274° |
| 2026-04-14 21:43 | -34.85981 | -57.96311 | 2933 ft | 195 kts | 274° |
| 2026-04-14 21:43 | -34.85878 | -57.97953 | 2932 ft | 194 kts | 274° |
| 2026-04-14 21:43 | -34.85776 | -57.99584 | 2932 ft | 193 kts | 273° |
| 2026-04-14 21:43 | -34.85673 | -58.01226 | 2933 ft | 193 kts | 274° |
| 2026-04-14 21:44 | -34.85578 | -58.02844 | 2933 ft | 193 kts | 273° |
| 2026-04-14 21:44 | -34.85471 | -58.04483 | 2933 ft | 194 kts | 273° |
| 2026-04-14 21:44 | -34.85368 | -58.06125 | 2933 ft | 194 kts | 274° |
| 2026-04-14 21:44 | -34.85262 | -58.07747 | 2933 ft | 194 kts | 273° |
| 2026-04-14 21:45 | -34.85155 | -58.09397 | 2932 ft | 194 kts | 273° |
| 2026-04-14 21:45 | -34.85049 | -58.11026 | 2931 ft | 194 kts | 273° |
| 2026-04-14 21:45 | -34.84942 | -58.12682 | 2929 ft | 194 kts | 273° |
| 2026-04-14 21:45 | -34.84835 | -58.14325 | 2927 ft | 194 kts | 273° |
| 2026-04-14 21:46 | -34.84728 | -58.15966 | 2925 ft | 194 kts | 273° |
| 2026-04-14 21:46 | -34.84622 | -58.17594 | 2923 ft | 195 kts | 273° |
| 2026-04-14 21:46 | -34.84520 | -58.19251 | 2922 ft | 194 kts | 275° |
| 2026-04-14 21:46 | -34.84430 | -58.20884 | 2921 ft | 194 kts | 277° |
| 2026-04-14 21:47 | -34.84308 | -58.22524 | 2919 ft | 193 kts | 276° |
| 2026-04-14 21:47 | -34.84197 | -58.24145 | 2917 ft | 193 kts | 277° |
| 2026-04-14 21:47 | -34.84087 | -58.25784 | 2915 ft | 193 kts | 276° |
| 2026-04-14 21:47 | -34.83756 | -58.27341 | 2914 ft | 189 kts | 307° |
| 2026-04-14 21:48 | -34.82917 | -58.28544 | 2914 ft | 188 kts | 310° |
| 2026-04-14 21:48 | -34.82118 | -58.29795 | 2909 ft | 189 kts | 310° |
| 2026-04-14 21:48 | -34.81256 | -58.31033 | 2908 ft | 193 kts | 309° |
| 2026-04-14 21:48 | -34.80417 | -58.32318 | 2907 ft | 195 kts | 308° |
| 2026-04-14 21:49 | -34.79570 | -58.33605 | 2907 ft | 196 kts | 308° |
| 2026-04-14 21:49 | -34.78720 | -58.34898 | 2906 ft | 196 kts | 308° |
| 2026-04-14 21:49 | -34.77855 | -58.36210 | 2906 ft | 196 kts | 308° |
| 2026-04-14 21:49 | -34.77007 | -58.37493 | 2906 ft | 196 kts | 308° |
| 2026-04-14 21:50 | -34.76145 | -58.38797 | 2906 ft | 196 kts | 308° |
| 2026-04-14 21:50 | -34.75286 | -58.40096 | 2906 ft | 196 kts | 308° |
| 2026-04-14 21:50 | -34.74438 | -58.41378 | 2906 ft | 196 kts | 308° |
| 2026-04-14 21:50 | -34.73575 | -58.42681 | 2906 ft | 196 kts | 308° |
| 2026-04-14 21:51 | -34.72729 | -58.43958 | 2906 ft | 196 kts | 308° |
| 2026-04-14 21:51 | -34.71871 | -58.45255 | 2906 ft | 195 kts | 308° |
| 2026-04-14 21:51 | -34.71024 | -58.46533 | 2906 ft | 195 kts | 308° |
| 2026-04-14 21:51 | -34.70166 | -58.47828 | 2906 ft | 195 kts | 309° |
| 2026-04-14 21:52 | -34.69322 | -58.49101 | 2907 ft | 195 kts | 309° |
| 2026-04-14 21:52 | -34.68469 | -58.50388 | 2909 ft | 194 kts | 310° |
| 2026-04-14 21:52 | -34.67636 | -58.51667 | 2907 ft | 191 kts | 310° |
| 2026-04-14 21:52 | -34.66803 | -58.52903 | 2906 ft | 190 kts | 310° |
| 2026-04-14 21:53 | -34.65974 | -58.54148 | 2907 ft | 189 kts | 310° |
| 2026-04-14 21:53 | -34.65147 | -58.55391 | 2907 ft | 189 kts | 311° |
| 2026-04-14 21:53 | -34.64309 | -58.56619 | 2906 ft | 188 kts | 311° |
| 2026-04-14 21:53 | -34.63484 | -58.57870 | 2906 ft | 188 kts | 310° |
| 2026-04-14 21:54 | -34.62662 | -58.59104 | 2907 ft | 188 kts | 310° |
| 2026-04-14 21:54 | -34.61830 | -58.60304 | 2907 ft | 187 kts | 320° |
| 2026-04-14 21:54 | -34.60639 | -58.60858 | 2901 ft | 184 kts | 351° |
| 2026-04-14 21:54 | -34.59409 | -58.61081 | 2900 ft | 172 kts | 354° |
| 2026-04-14 21:55 | -34.58318 | -58.61263 | 2836 ft | 141 kts | 349° |
| 2026-04-14 21:55 | -34.57571 | -58.61478 | 2705 ft | 122 kts | 349° |
| 2026-04-14 21:55 | -34.56831 | -58.61708 | 2500 ft | 122 kts | 347° |
| 2026-04-14 21:55 | -34.55983 | -58.61986 | 2254 ft | 131 kts | 347° |
| 2026-04-14 21:56 | -34.55135 | -58.62261 | 1991 ft | 117 kts | 347° |
| 2026-04-14 21:56 | -34.54376 | -58.62508 | 1655 ft | 120 kts | 347° |
| 2026-04-14 21:56 | -34.53562 | -58.62792 | 1411 ft | 116 kts | 348° |
| 2026-04-14 21:56 | -34.52820 | -58.63034 | 1247 ft | 104 kts | 347° |
| 2026-04-14 21:57 | -34.52071 | -58.63262 | 1095 ft | 121 kts | 354° |
| 2026-04-14 21:57 | -34.51201 | -58.63358 | 991 ft | 129 kts | 5° |
| 2026-04-14 21:57 | -34.50299 | -58.63180 | 874 ft | 134 kts | 14° |
| 2026-04-14 21:57 | -34.49429 | -58.62936 | 683 ft | 126 kts | 17° |
| 2026-04-14 21:58 | -34.48637 | -58.62557 | 399 ft | 118 kts | 31° |
| 2026-04-14 21:58 | -34.47956 | -58.62042 | 252 ft | 109 kts | 40° |
| 2026-04-14 21:58 | -34.47451 | -58.61441 | 243 ft | 99 kts | 45° |
| 2026-04-14 21:58 | -34.46958 | -58.60866 | 255 ft | 91 kts | 47° |
| 2026-04-14 21:59 | -34.46534 | -58.60363 | 229 ft | 84 kts | 47° |
| 2026-04-14 21:59 | -34.46111 | -58.59861 | 126 ft | 81 kts | 46° |
| 2026-04-14 21:59 | -34.45736 | -58.59422 | 18 ft | 72 kts | 41° |
| 2026-04-14 21:59 | -34.45425 | -58.59053 | 10 ft | 50 kts | 45° |
| 2026-04-14 22:00 | -34.45209 | -58.58800 | 11 ft | 38 kts | 45° |
| 2026-04-14 22:00 | -34.45035 | -58.58594 | 11 ft | 31 kts | 44° |
| 2026-04-14 22:00 | -34.44880 | -58.58411 | 10 ft | 24 kts | 45° |
| 2026-04-14 22:00 | -34.44891 | -58.58285 | 12 ft | 16 kts | 148° |
| 2026-04-14 22:01 | -34.44990 | -58.58215 | 13 ft | 18 kts | 148° |
| 2026-04-14 22:01 | -34.45093 | -58.58141 | 14 ft | 16 kts | 148° |
| 2026-04-14 22:01 | -34.45218 | -58.58051 | 15 ft | 22 kts | 149° |
| 2026-04-14 22:01 | -34.45330 | -58.57983 | 17 ft | 12 kts | 213° |
| 2026-04-14 22:02 | -34.45384 | -58.58101 | 17 ft | 21 kts | 243° |
| 2026-04-14 22:02 | -34.45453 | -58.58264 | 15 ft | 19 kts | 240° |
| 2026-04-14 22:02 | -34.45507 | -58.58378 | 14 ft | 5 kts | 180° |
| 2026-04-14 22:02 | -34.45530 | -58.58365 | 15 ft | 3 kts | 146° |
| 2026-04-14 22:03 | -34.45544 | -58.58365 | 15 ft | 0 kts | 210° |